sensor_id;sensor_type;location;lat;lon;timestamp;P1;durP1;ratioP1;P2;durP2;ratioP2
54921;SDS011;40824;45.116;21.296;2024-02-21T00:01:03;63.85;;;43.38;;
54921;SDS011;40824;45.116;21.296;2024-02-21T00:03:30;64.60;;;43.92;;
54921;SDS011;40824;45.116;21.296;2024-02-21T00:05:59;66.65;;;45.80;;
54921;SDS011;40824;45.116;21.296;2024-02-21T00:08:25;62.75;;;44.08;;
54921;SDS011;40824;45.116;21.296;2024-02-21T00:10:51;63.95;;;44.83;;
54921;SDS011;40824;45.116;21.296;2024-02-21T00:13:17;65.55;;;45.88;;
54921;SDS011;40824;45.116;21.296;2024-02-21T00:15:43;67.65;;;46.45;;
54921;SDS011;40824;45.116;21.296;2024-02-21T00:18:09;63.47;;;43.42;;
54921;SDS011;40824;45.116;21.296;2024-02-21T00:20:36;66.45;;;46.42;;
54921;SDS011;40824;45.116;21.296;2024-02-21T00:23:02;65.10;;;45.50;;
54921;SDS011;40824;45.116;21.296;2024-02-21T00:25:28;68.13;;;45.10;;
54921;SDS011;40824;45.116;21.296;2024-02-21T00:27:57;67.63;;;44.42;;
54921;SDS011;40824;45.116;21.296;2024-02-21T00:30:23;68.63;;;46.25;;
54921;SDS011;40824;45.116;21.296;2024-02-21T00:32:52;66.93;;;45.05;;
54921;SDS011;40824;45.116;21.296;2024-02-21T00:35:18;67.20;;;43.72;;
54921;SDS011;40824;45.116;21.296;2024-02-21T00:37:44;63.72;;;44.15;;
54921;SDS011;40824;45.116;21.296;2024-02-21T00:40:13;61.88;;;43.47;;
54921;SDS011;40824;45.116;21.296;2024-02-21T00:42:45;62.85;;;44.78;;
54921;SDS011;40824;45.116;21.296;2024-02-21T00:45:11;64.35;;;43.55;;
54921;SDS011;40824;45.116;21.296;2024-02-21T00:47:37;66.50;;;46.28;;
54921;SDS011;40824;45.116;21.296;2024-02-21T00:50:03;94.40;;;46.00;;
54921;SDS011;40824;45.116;21.296;2024-02-21T00:52:32;63.75;;;43.97;;
54921;SDS011;40824;45.116;21.296;2024-02-21T00:54:58;66.05;;;46.78;;
54921;SDS011;40824;45.116;21.296;2024-02-21T00:57:25;61.80;;;42.55;;
54921;SDS011;40824;45.116;21.296;2024-02-21T00:59:51;65.55;;;44.83;;
54921;SDS011;40824;45.116;21.296;2024-02-21T01:02:17;66.35;;;43.70;;
54921;SDS011;40824;45.116;21.296;2024-02-21T01:04:43;65.07;;;44.35;;
54921;SDS011;40824;45.116;21.296;2024-02-21T01:07:09;66.45;;;44.15;;
54921;SDS011;40824;45.116;21.296;2024-02-21T01:09:35;61.38;;;43.15;;
54921;SDS011;40824;45.116;21.296;2024-02-21T01:12:01;65.07;;;45.25;;
54921;SDS011;40824;45.116;21.296;2024-02-21T01:14:27;69.10;;;46.22;;
54921;SDS011;40824;45.116;21.296;2024-02-21T01:16:53;62.63;;;45.33;;
54921;SDS011;40824;45.116;21.296;2024-02-21T01:19:19;65.95;;;44.92;;
54921;SDS011;40824;45.116;21.296;2024-02-21T01:21:46;66.68;;;44.88;;
54921;SDS011;40824;45.116;21.296;2024-02-21T01:24:12;60.95;;;45.70;;
54921;SDS011;40824;45.116;21.296;2024-02-21T01:26:39;65.07;;;44.17;;
54921;SDS011;40824;45.116;21.296;2024-02-21T01:29:05;63.30;;;43.13;;
54921;SDS011;40824;45.116;21.296;2024-02-21T01:31:31;62.15;;;44.20;;
54921;SDS011;40824;45.116;21.296;2024-02-21T01:33:57;66.15;;;43.95;;
54921;SDS011;40824;45.116;21.296;2024-02-21T01:36:23;62.03;;;43.28;;
54921;SDS011;40824;45.116;21.296;2024-02-21T01:38:50;59.45;;;42.72;;
54921;SDS011;40824;45.116;21.296;2024-02-21T01:41:16;67.63;;;42.95;;
54921;SDS011;40824;45.116;21.296;2024-02-21T01:43:42;65.47;;;44.05;;
54921;SDS011;40824;45.116;21.296;2024-02-21T01:46:08;63.30;;;43.42;;
54921;SDS011;40824;45.116;21.296;2024-02-21T01:48:36;63.40;;;43.55;;
54921;SDS011;40824;45.116;21.296;2024-02-21T01:51:03;62.53;;;43.55;;
54921;SDS011;40824;45.116;21.296;2024-02-21T01:53:30;64.72;;;45.40;;
54921;SDS011;40824;45.116;21.296;2024-02-21T01:55:59;62.35;;;43.00;;
54921;SDS011;40824;45.116;21.296;2024-02-21T01:58:26;58.78;;;42.20;;
54921;SDS011;40824;45.116;21.296;2024-02-21T02:00:53;62.58;;;43.80;;
54921;SDS011;40824;45.116;21.296;2024-02-21T02:03:22;63.88;;;44.08;;
54921;SDS011;40824;45.116;21.296;2024-02-21T02:05:50;62.30;;;44.65;;
54921;SDS011;40824;45.116;21.296;2024-02-21T02:08:17;61.33;;;43.80;;
54921;SDS011;40824;45.116;21.296;2024-02-21T02:10:49;64.57;;;44.53;;
54921;SDS011;40824;45.116;21.296;2024-02-21T02:13:15;62.58;;;42.22;;
54921;SDS011;40824;45.116;21.296;2024-02-21T02:15:42;59.83;;;42.00;;
54921;SDS011;40824;45.116;21.296;2024-02-21T02:18:08;63.97;;;42.92;;
54921;SDS011;40824;45.116;21.296;2024-02-21T02:20:35;65.65;;;42.92;;
54921;SDS011;40824;45.116;21.296;2024-02-21T02:23:10;60.58;;;41.53;;
54921;SDS011;40824;45.116;21.296;2024-02-21T02:25:36;62.00;;;41.50;;
54921;SDS011;40824;45.116;21.296;2024-02-21T02:28:03;60.00;;;42.13;;
54921;SDS011;40824;45.116;21.296;2024-02-21T02:30:32;60.58;;;42.88;;
54921;SDS011;40824;45.116;21.296;2024-02-21T02:32:59;62.42;;;42.75;;
54921;SDS011;40824;45.116;21.296;2024-02-21T02:35:25;63.55;;;42.65;;
54921;SDS011;40824;45.116;21.296;2024-02-21T02:37:51;61.90;;;42.67;;
54921;SDS011;40824;45.116;21.296;2024-02-21T02:40:20;60.00;;;43.00;;
54921;SDS011;40824;45.116;21.296;2024-02-21T02:42:46;71.13;;;43.03;;
54921;SDS011;40824;45.116;21.296;2024-02-21T02:45:14;65.03;;;43.20;;
54921;SDS011;40824;45.116;21.296;2024-02-21T02:47:40;69.35;;;42.83;;
54921;SDS011;40824;45.116;21.296;2024-02-21T02:50:07;64.00;;;43.83;;
54921;SDS011;40824;45.116;21.296;2024-02-21T02:52:33;63.42;;;42.33;;
54921;SDS011;40824;45.116;21.296;2024-02-21T02:54:59;62.70;;;44.20;;
54921;SDS011;40824;45.116;21.296;2024-02-21T02:57:26;64.63;;;45.03;;
54921;SDS011;40824;45.116;21.296;2024-02-21T02:59:55;60.75;;;42.58;;
54921;SDS011;40824;45.116;21.296;2024-02-21T03:02:21;64.25;;;42.40;;
54921;SDS011;40824;45.116;21.296;2024-02-21T03:04:47;64.60;;;44.92;;
54921;SDS011;40824;45.116;21.296;2024-02-21T03:07:14;65.90;;;44.85;;
54921;SDS011;40824;45.116;21.296;2024-02-21T03:09:40;63.67;;;44.67;;
54921;SDS011;40824;45.116;21.296;2024-02-21T03:12:07;62.70;;;45.38;;
54921;SDS011;40824;45.116;21.296;2024-02-21T03:14:34;62.22;;;44.80;;
54921;SDS011;40824;45.116;21.296;2024-02-21T03:17:00;67.05;;;44.25;;
54921;SDS011;40824;45.116;21.296;2024-02-21T03:19:27;65.82;;;44.83;;
54921;SDS011;40824;45.116;21.296;2024-02-21T03:21:53;64.55;;;43.67;;
54921;SDS011;40824;45.116;21.296;2024-02-21T03:24:20;62.47;;;44.58;;
54921;SDS011;40824;45.116;21.296;2024-02-21T03:26:46;66.55;;;45.97;;
54921;SDS011;40824;45.116;21.296;2024-02-21T03:29:14;69.38;;;46.33;;
54921;SDS011;40824;45.116;21.296;2024-02-21T03:31:40;60.15;;;42.63;;
54921;SDS011;40824;45.116;21.296;2024-02-21T03:34:06;61.95;;;43.03;;
54921;SDS011;40824;45.116;21.296;2024-02-21T03:36:32;61.38;;;41.70;;
54921;SDS011;40824;45.116;21.296;2024-02-21T03:38:59;62.08;;;44.83;;
54921;SDS011;40824;45.116;21.296;2024-02-21T03:41:27;63.67;;;44.22;;
54921;SDS011;40824;45.116;21.296;2024-02-21T03:43:53;63.83;;;43.17;;
54921;SDS011;40824;45.116;21.296;2024-02-21T03:46:19;61.88;;;43.60;;
54921;SDS011;40824;45.116;21.296;2024-02-21T03:48:45;59.28;;;42.50;;
54921;SDS011;40824;45.116;21.296;2024-02-21T03:51:12;60.47;;;43.33;;
54921;SDS011;40824;45.116;21.296;2024-02-21T03:53:40;66.78;;;43.17;;
54921;SDS011;40824;45.116;21.296;2024-02-21T03:56:06;58.30;;;41.42;;
54921;SDS011;40824;45.116;21.296;2024-02-21T03:58:33;65.00;;;43.35;;
54921;SDS011;40824;45.116;21.296;2024-02-21T04:01:02;63.28;;;42.33;;
54921;SDS011;40824;45.116;21.296;2024-02-21T04:03:30;61.78;;;43.10;;
54921;SDS011;40824;45.116;21.296;2024-02-21T04:05:56;60.08;;;43.00;;
54921;SDS011;40824;45.116;21.296;2024-02-21T04:08:22;59.75;;;41.78;;
54921;SDS011;40824;45.116;21.296;2024-02-21T04:10:49;60.97;;;40.67;;
54921;SDS011;40824;45.116;21.296;2024-02-21T04:13:15;59.80;;;42.92;;
54921;SDS011;40824;45.116;21.296;2024-02-21T04:15:41;65.00;;;45.28;;
54921;SDS011;40824;45.116;21.296;2024-02-21T04:18:07;65.47;;;44.63;;
54921;SDS011;40824;45.116;21.296;2024-02-21T04:20:34;67.88;;;44.33;;
54921;SDS011;40824;45.116;21.296;2024-02-21T04:23:00;63.28;;;43.50;;
54921;SDS011;40824;45.116;21.296;2024-02-21T04:25:27;65.82;;;44.53;;
54921;SDS011;40824;45.116;21.296;2024-02-21T04:27:53;61.17;;;42.85;;
54921;SDS011;40824;45.116;21.296;2024-02-21T04:30:19;67.93;;;44.50;;
54921;SDS011;40824;45.116;21.296;2024-02-21T04:32:45;59.92;;;42.40;;
54921;SDS011;40824;45.116;21.296;2024-02-21T04:35:11;65.15;;;44.67;;
54921;SDS011;40824;45.116;21.296;2024-02-21T04:37:37;63.88;;;44.80;;
54921;SDS011;40824;45.116;21.296;2024-02-21T04:40:03;63.28;;;43.97;;
54921;SDS011;40824;45.116;21.296;2024-02-21T04:42:30;60.13;;;42.40;;
54921;SDS011;40824;45.116;21.296;2024-02-21T04:44:56;64.57;;;44.72;;
54921;SDS011;40824;45.116;21.296;2024-02-21T04:47:22;70.07;;;47.53;;
54921;SDS011;40824;45.116;21.296;2024-02-21T04:49:50;67.75;;;45.83;;
54921;SDS011;40824;45.116;21.296;2024-02-21T04:52:16;72.38;;;46.28;;
54921;SDS011;40824;45.116;21.296;2024-02-21T04:54:42;68.63;;;45.95;;
54921;SDS011;40824;45.116;21.296;2024-02-21T04:57:11;72.10;;;46.80;;
54921;SDS011;40824;45.116;21.296;2024-02-21T04:59:41;68.00;;;44.35;;
54921;SDS011;40824;45.116;21.296;2024-02-21T05:02:08;66.50;;;45.20;;
54921;SDS011;40824;45.116;21.296;2024-02-21T05:04:34;65.13;;;45.28;;
54921;SDS011;40824;45.116;21.296;2024-02-21T05:07:02;70.80;;;45.88;;
54921;SDS011;40824;45.116;21.296;2024-02-21T05:09:28;67.68;;;42.88;;
54921;SDS011;40824;45.116;21.296;2024-02-21T05:11:54;69.45;;;44.72;;
54921;SDS011;40824;45.116;21.296;2024-02-21T05:14:20;68.25;;;47.72;;
54921;SDS011;40824;45.116;21.296;2024-02-21T05:16:46;72.82;;;49.55;;
54921;SDS011;40824;45.116;21.296;2024-02-21T05:19:12;89.30;;;62.13;;
54921;SDS011;40824;45.116;21.296;2024-02-21T05:21:38;73.32;;;51.30;;
54921;SDS011;40824;45.116;21.296;2024-02-21T05:24:05;75.50;;;52.05;;
54921;SDS011;40824;45.116;21.296;2024-02-21T05:26:31;61.17;;;42.17;;
54921;SDS011;40824;45.116;21.296;2024-02-21T05:28:57;67.57;;;42.83;;
54921;SDS011;40824;45.116;21.296;2024-02-21T05:31:24;67.90;;;46.00;;
54921;SDS011;40824;45.116;21.296;2024-02-21T05:33:51;56.55;;;37.50;;
54921;SDS011;40824;45.116;21.296;2024-02-21T05:36:17;61.28;;;39.80;;
54921;SDS011;40824;45.116;21.296;2024-02-21T05:38:43;53.67;;;35.85;;
54921;SDS011;40824;45.116;21.296;2024-02-21T05:41:09;38.95;;;28.85;;
54921;SDS011;40824;45.116;21.296;2024-02-21T05:43:35;37.78;;;26.35;;
54921;SDS011;40824;45.116;21.296;2024-02-21T05:46:01;29.90;;;22.73;;
54921;SDS011;40824;45.116;21.296;2024-02-21T05:48:27;33.80;;;22.40;;
54921;SDS011;40824;45.116;21.296;2024-02-21T05:50:54;35.33;;;22.27;;
54921;SDS011;40824;45.116;21.296;2024-02-21T05:53:20;30.30;;;19.85;;
54921;SDS011;40824;45.116;21.296;2024-02-21T05:55:46;29.25;;;19.08;;
54921;SDS011;40824;45.116;21.296;2024-02-21T05:58:12;26.90;;;18.63;;
54921;SDS011;40824;45.116;21.296;2024-02-21T06:00:39;28.10;;;18.48;;
54921;SDS011;40824;45.116;21.296;2024-02-21T06:03:05;25.67;;;17.92;;
54921;SDS011;40824;45.116;21.296;2024-02-21T06:05:36;26.02;;;17.60;;
54921;SDS011;40824;45.116;21.296;2024-02-21T06:08:02;24.77;;;17.48;;
54921;SDS011;40824;45.116;21.296;2024-02-21T06:10:28;22.52;;;15.93;;
54921;SDS011;40824;45.116;21.296;2024-02-21T06:12:54;22.00;;;15.02;;
54921;SDS011;40824;45.116;21.296;2024-02-21T06:15:20;23.50;;;14.93;;
54921;SDS011;40824;45.116;21.296;2024-02-21T06:17:47;22.48;;;15.98;;
54921;SDS011;40824;45.116;21.296;2024-02-21T06:20:13;59.28;;;47.97;;
54921;SDS011;40824;45.116;21.296;2024-02-21T06:22:39;94.90;;;83.78;;
54921;SDS011;40824;45.116;21.296;2024-02-21T06:25:05;94.53;;;83.38;;
54921;SDS011;40824;45.116;21.296;2024-02-21T06:27:31;66.45;;;58.53;;
54921;SDS011;40824;45.116;21.296;2024-02-21T06:29:57;48.13;;;42.88;;
54921;SDS011;40824;45.116;21.296;2024-02-21T06:32:23;30.38;;;25.60;;
54921;SDS011;40824;45.116;21.296;2024-02-21T06:34:50;25.95;;;21.15;;
54921;SDS011;40824;45.116;21.296;2024-02-21T06:37:16;24.67;;;21.63;;
54921;SDS011;40824;45.116;21.296;2024-02-21T06:39:42;31.42;;;25.25;;
54921;SDS011;40824;45.116;21.296;2024-02-21T06:42:09;31.95;;;26.13;;
54921;SDS011;40824;45.116;21.296;2024-02-21T06:44:35;27.42;;;22.33;;
54921;SDS011;40824;45.116;21.296;2024-02-21T06:47:05;27.52;;;20.83;;
54921;SDS011;40824;45.116;21.296;2024-02-21T06:49:32;27.92;;;21.25;;
54921;SDS011;40824;45.116;21.296;2024-02-21T06:51:58;25.83;;;20.05;;
54921;SDS011;40824;45.116;21.296;2024-02-21T06:54:24;23.23;;;16.88;;
54921;SDS011;40824;45.116;21.296;2024-02-21T06:56:51;21.27;;;14.60;;
54921;SDS011;40824;45.116;21.296;2024-02-21T06:59:17;21.55;;;15.02;;
54921;SDS011;40824;45.116;21.296;2024-02-21T07:01:49;19.98;;;14.75;;
54921;SDS011;40824;45.116;21.296;2024-02-21T07:04:15;25.38;;;17.88;;
54921;SDS011;40824;45.116;21.296;2024-02-21T07:06:41;22.30;;;14.85;;
54921;SDS011;40824;45.116;21.296;2024-02-21T07:09:08;19.58;;;15.75;;
54921;SDS011;40824;45.116;21.296;2024-02-21T07:11:34;19.75;;;14.52;;
54921;SDS011;40824;45.116;21.296;2024-02-21T07:14:00;19.83;;;14.70;;
54921;SDS011;40824;45.116;21.296;2024-02-21T07:16:26;19.83;;;15.00;;
54921;SDS011;40824;45.116;21.296;2024-02-21T07:18:53;22.73;;;16.15;;
54921;SDS011;40824;45.116;21.296;2024-02-21T07:21:23;22.27;;;16.35;;
54921;SDS011;40824;45.116;21.296;2024-02-21T07:23:49;18.38;;;14.63;;
54921;SDS011;40824;45.116;21.296;2024-02-21T07:26:16;18.98;;;14.05;;
54921;SDS011;40824;45.116;21.296;2024-02-21T07:28:42;19.80;;;13.13;;
54921;SDS011;40824;45.116;21.296;2024-02-21T07:31:08;18.48;;;13.43;;
54921;SDS011;40824;45.116;21.296;2024-02-21T07:33:34;16.25;;;12.75;;
54921;SDS011;40824;45.116;21.296;2024-02-21T07:36:01;15.50;;;12.30;;
54921;SDS011;40824;45.116;21.296;2024-02-21T07:38:27;16.83;;;12.88;;
54921;SDS011;40824;45.116;21.296;2024-02-21T07:40:53;18.60;;;14.02;;
54921;SDS011;40824;45.116;21.296;2024-02-21T07:43:19;19.48;;;15.68;;
54921;SDS011;40824;45.116;21.296;2024-02-21T07:45:47;21.02;;;15.27;;
54921;SDS011;40824;45.116;21.296;2024-02-21T07:48:13;30.92;;;21.02;;
54921;SDS011;40824;45.116;21.296;2024-02-21T07:50:39;28.42;;;20.52;;
54921;SDS011;40824;45.116;21.296;2024-02-21T07:53:05;20.42;;;15.82;;
54921;SDS011;40824;45.116;21.296;2024-02-21T07:55:31;21.63;;;15.13;;
54921;SDS011;40824;45.116;21.296;2024-02-21T07:57:58;20.05;;;13.48;;
54921;SDS011;40824;45.116;21.296;2024-02-21T08:00:24;20.15;;;13.00;;
54921;SDS011;40824;45.116;21.296;2024-02-21T08:02:50;21.35;;;17.42;;
54921;SDS011;40824;45.116;21.296;2024-02-21T08:05:16;23.80;;;17.63;;
54921;SDS011;40824;45.116;21.296;2024-02-21T08:07:42;31.63;;;21.73;;
54921;SDS011;40824;45.116;21.296;2024-02-21T08:10:09;22.50;;;17.27;;
54921;SDS011;40824;45.116;21.296;2024-02-21T08:12:35;27.05;;;18.23;;
54921;SDS011;40824;45.116;21.296;2024-02-21T08:15:02;21.40;;;16.70;;
54921;SDS011;40824;45.116;21.296;2024-02-21T08:17:33;18.33;;;14.70;;
54921;SDS011;40824;45.116;21.296;2024-02-21T08:19:59;17.50;;;13.60;;
54921;SDS011;40824;45.116;21.296;2024-02-21T08:22:25;16.85;;;13.25;;
54921;SDS011;40824;45.116;21.296;2024-02-21T08:24:51;14.95;;;12.45;;
54921;SDS011;40824;45.116;21.296;2024-02-21T08:27:18;15.65;;;10.45;;
54921;SDS011;40824;45.116;21.296;2024-02-21T08:29:44;14.65;;;10.93;;
54921;SDS011;40824;45.116;21.296;2024-02-21T08:32:10;15.60;;;10.57;;
54921;SDS011;40824;45.116;21.296;2024-02-21T08:34:36;14.32;;;10.45;;
54921;SDS011;40824;45.116;21.296;2024-02-21T08:37:02;12.27;;;10.50;;
54921;SDS011;40824;45.116;21.296;2024-02-21T08:39:29;13.07;;;10.23;;
54921;SDS011;40824;45.116;21.296;2024-02-21T08:41:55;11.50;;;9.70;;
54921;SDS011;40824;45.116;21.296;2024-02-21T08:44:23;12.70;;;8.90;;
54921;SDS011;40824;45.116;21.296;2024-02-21T08:46:52;12.25;;;9.77;;
54921;SDS011;40824;45.116;21.296;2024-02-21T08:49:18;14.05;;;10.35;;
54921;SDS011;40824;45.116;21.296;2024-02-21T08:51:44;12.82;;;10.13;;
54921;SDS011;40824;45.116;21.296;2024-02-21T08:54:11;11.65;;;9.38;;
54921;SDS011;40824;45.116;21.296;2024-02-21T08:56:37;10.68;;;9.00;;
54921;SDS011;40824;45.116;21.296;2024-02-21T08:59:03;16.17;;;10.05;;
54921;SDS011;40824;45.116;21.296;2024-02-21T09:01:29;15.90;;;10.23;;
54921;SDS011;40824;45.116;21.296;2024-02-21T09:03:56;14.35;;;9.75;;
54921;SDS011;40824;45.116;21.296;2024-02-21T09:06:22;11.65;;;8.95;;
54921;SDS011;40824;45.116;21.296;2024-02-21T09:08:48;11.98;;;9.38;;
54921;SDS011;40824;45.116;21.296;2024-02-21T09:11:14;11.98;;;8.80;;
54921;SDS011;40824;45.116;21.296;2024-02-21T09:13:44;10.98;;;8.82;;
54921;SDS011;40824;45.116;21.296;2024-02-21T09:16:10;10.52;;;8.60;;
54921;SDS011;40824;45.116;21.296;2024-02-21T09:18:37;15.13;;;8.82;;
54921;SDS011;40824;45.116;21.296;2024-02-21T09:21:03;9.93;;;8.07;;
54921;SDS011;40824;45.116;21.296;2024-02-21T09:23:31;10.73;;;8.38;;
54921;SDS011;40824;45.116;21.296;2024-02-21T09:25:58;13.20;;;8.80;;
54921;SDS011;40824;45.116;21.296;2024-02-21T09:28:28;10.73;;;7.88;;
54921;SDS011;40824;45.116;21.296;2024-02-21T09:30:54;10.98;;;7.63;;
54921;SDS011;40824;45.116;21.296;2024-02-21T09:33:20;9.82;;;7.78;;
54921;SDS011;40824;45.116;21.296;2024-02-21T09:35:46;12.48;;;7.28;;
54921;SDS011;40824;45.116;21.296;2024-02-21T09:38:13;8.77;;;7.20;;
54921;SDS011;40824;45.116;21.296;2024-02-21T09:40:39;9.20;;;6.40;;
54921;SDS011;40824;45.116;21.296;2024-02-21T09:43:08;9.10;;;6.90;;
54921;SDS011;40824;45.116;21.296;2024-02-21T09:45:34;9.30;;;6.95;;
54921;SDS011;40824;45.116;21.296;2024-02-21T09:50:39;24.15;;;16.00;;
54921;SDS011;40824;45.116;21.296;2024-02-21T09:53:06;45.63;;;24.25;;
54921;SDS011;40824;45.116;21.296;2024-02-21T09:55:33;31.27;;;17.63;;
54921;SDS011;40824;45.116;21.296;2024-02-21T09:58:01;111.25;;;56.38;;
54921;SDS011;40824;45.116;21.296;2024-02-21T10:00:28;14.05;;;8.80;;
54921;SDS011;40824;45.116;21.296;2024-02-21T10:02:54;12.30;;;6.97;;
54921;SDS011;40824;45.116;21.296;2024-02-21T10:05:20;11.15;;;9.20;;
54921;SDS011;40824;45.116;21.296;2024-02-21T10:07:48;20.20;;;12.82;;
54921;SDS011;40824;45.116;21.296;2024-02-21T10:10:15;8.25;;;6.45;;
54921;SDS011;40824;45.116;21.296;2024-02-21T10:12:50;8.25;;;6.10;;
54921;SDS011;40824;45.116;21.296;2024-02-21T10:15:20;13.25;;;8.77;;
54921;SDS011;40824;45.116;21.296;2024-02-21T10:17:47;11.63;;;6.55;;
54921;SDS011;40824;45.116;21.296;2024-02-21T10:20:13;10.77;;;6.22;;
54921;SDS011;40824;45.116;21.296;2024-02-21T10:22:41;8.65;;;6.28;;
54921;SDS011;40824;45.116;21.296;2024-02-21T10:25:10;9.88;;;5.88;;
54921;SDS011;40824;45.116;21.296;2024-02-21T10:27:37;8.30;;;5.25;;
54921;SDS011;40824;45.116;21.296;2024-02-21T10:30:07;11.20;;;6.10;;
54921;SDS011;40824;45.116;21.296;2024-02-21T10:32:33;9.82;;;5.93;;
54921;SDS011;40824;45.116;21.296;2024-02-21T10:35:03;10.00;;;6.70;;
54921;SDS011;40824;45.116;21.296;2024-02-21T10:37:29;11.43;;;7.00;;
54921;SDS011;40824;45.116;21.296;2024-02-21T10:39:56;10.70;;;6.55;;
54921;SDS011;40824;45.116;21.296;2024-02-21T10:42:29;11.13;;;6.30;;
54921;SDS011;40824;45.116;21.296;2024-02-21T10:44:58;8.68;;;6.00;;
54921;SDS011;40824;45.116;21.296;2024-02-21T10:47:27;8.88;;;5.70;;
54921;SDS011;40824;45.116;21.296;2024-02-21T10:50:02;7.47;;;4.90;;
54921;SDS011;40824;45.116;21.296;2024-02-21T10:57:26;10.20;;;5.78;;
54921;SDS011;40824;45.116;21.296;2024-02-21T10:59:55;6.90;;;4.88;;
54921;SDS011;40824;45.116;21.296;2024-02-21T11:02:21;11.20;;;6.85;;
54921;SDS011;40824;45.116;21.296;2024-02-21T11:04:50;8.95;;;5.10;;
54921;SDS011;40824;45.116;21.296;2024-02-21T11:07:18;5.93;;;4.78;;
54921;SDS011;40824;45.116;21.296;2024-02-21T11:09:51;7.15;;;4.53;;
54921;SDS011;40824;45.116;21.296;2024-02-21T11:12:23;8.25;;;4.25;;
54921;SDS011;40824;45.116;21.296;2024-02-21T11:14:52;9.80;;;4.38;;
54921;SDS011;40824;45.116;21.296;2024-02-21T11:17:19;7.78;;;4.70;;
54921;SDS011;40824;45.116;21.296;2024-02-21T11:19:52;8.20;;;5.20;;
54921;SDS011;40824;45.116;21.296;2024-02-21T11:22:19;7.75;;;4.82;;
54921;SDS011;40824;45.116;21.296;2024-02-21T11:24:47;8.77;;;4.70;;
54921;SDS011;40824;45.116;21.296;2024-02-21T11:27:20;7.70;;;4.53;;
54921;SDS011;40824;45.116;21.296;2024-02-21T11:29:47;10.40;;;4.72;;
54921;SDS011;40824;45.116;21.296;2024-02-21T11:32:19;8.00;;;4.78;;
54921;SDS011;40824;45.116;21.296;2024-02-21T11:37:27;7.85;;;4.90;;
54921;SDS011;40824;45.116;21.296;2024-02-21T11:39:57;9.40;;;4.50;;
54921;SDS011;40824;45.116;21.296;2024-02-21T11:42:27;7.50;;;3.80;;
54921;SDS011;40824;45.116;21.296;2024-02-21T11:44:54;7.57;;;4.00;;
54921;SDS011;40824;45.116;21.296;2024-02-21T11:47:23;8.23;;;4.10;;
54921;SDS011;40824;45.116;21.296;2024-02-21T11:49:50;7.68;;;3.42;;
54921;SDS011;40824;45.116;21.296;2024-02-21T11:52:22;7.10;;;4.18;;
54921;SDS011;40824;45.116;21.296;2024-02-21T11:54:50;5.47;;;3.75;;
54921;SDS011;40824;45.116;21.296;2024-02-21T11:57:17;8.18;;;3.38;;
54921;SDS011;40824;45.116;21.296;2024-02-21T11:59:44;6.72;;;3.95;;
54921;SDS011;40824;45.116;21.296;2024-02-21T12:02:10;4.68;;;2.70;;
54921;SDS011;40824;45.116;21.296;2024-02-21T12:04:36;9.02;;;4.13;;
54921;SDS011;40824;45.116;21.296;2024-02-21T12:07:02;7.50;;;4.03;;
54921;SDS011;40824;45.116;21.296;2024-02-21T12:09:31;7.18;;;3.40;;
54921;SDS011;40824;45.116;21.296;2024-02-21T12:12:00;10.65;;;3.88;;
54921;SDS011;40824;45.116;21.296;2024-02-21T12:14:28;7.20;;;3.70;;
54921;SDS011;40824;45.116;21.296;2024-02-21T12:17:00;5.28;;;3.30;;
54921;SDS011;40824;45.116;21.296;2024-02-21T12:19:29;7.88;;;3.60;;
54921;SDS011;40824;45.116;21.296;2024-02-21T12:21:56;8.98;;;4.40;;
54921;SDS011;40824;45.116;21.296;2024-02-21T12:24:24;8.68;;;4.38;;
54921;SDS011;40824;45.116;21.296;2024-02-21T12:26:50;11.38;;;4.47;;
54921;SDS011;40824;45.116;21.296;2024-02-21T12:29:19;14.27;;;7.00;;
54921;SDS011;40824;45.116;21.296;2024-02-21T12:31:46;10.73;;;3.78;;
54921;SDS011;40824;45.116;21.296;2024-02-21T12:34:12;10.30;;;4.45;;
54921;SDS011;40824;45.116;21.296;2024-02-21T12:36:42;8.38;;;4.10;;
54921;SDS011;40824;45.116;21.296;2024-02-21T12:39:08;12.65;;;4.30;;
54921;SDS011;40824;45.116;21.296;2024-02-21T12:41:35;9.90;;;4.90;;
54921;SDS011;40824;45.116;21.296;2024-02-21T12:44:04;7.50;;;3.90;;
54921;SDS011;40824;45.116;21.296;2024-02-21T12:46:32;9.25;;;4.35;;
54921;SDS011;40824;45.116;21.296;2024-02-21T12:48:58;9.60;;;4.90;;
54921;SDS011;40824;45.116;21.296;2024-02-21T12:51:24;8.55;;;5.30;;
54921;SDS011;40824;45.116;21.296;2024-02-21T12:53:51;9.82;;;5.93;;
54921;SDS011;40824;45.116;21.296;2024-02-21T12:56:17;12.88;;;7.93;;
54921;SDS011;40824;45.116;21.296;2024-02-21T12:58:43;14.73;;;5.93;;
54921;SDS011;40824;45.116;21.296;2024-02-21T13:01:11;10.27;;;5.57;;
54921;SDS011;40824;45.116;21.296;2024-02-21T13:03:38;11.75;;;5.63;;
54921;SDS011;40824;45.116;21.296;2024-02-21T13:06:04;10.52;;;6.22;;
54921;SDS011;40824;45.116;21.296;2024-02-21T13:08:35;13.18;;;8.20;;
54921;SDS011;40824;45.116;21.296;2024-02-21T13:11:01;16.05;;;6.85;;
54921;SDS011;40824;45.116;21.296;2024-02-21T13:13:27;14.23;;;6.38;;
54921;SDS011;40824;45.116;21.296;2024-02-21T13:15:53;10.20;;;5.30;;
54921;SDS011;40824;45.116;21.296;2024-02-21T13:18:19;9.55;;;5.10;;
54921;SDS011;40824;45.116;21.296;2024-02-21T13:20:45;7.68;;;4.68;;
54921;SDS011;40824;45.116;21.296;2024-02-21T13:23:14;9.65;;;5.50;;
54921;SDS011;40824;45.116;21.296;2024-02-21T13:25:40;12.38;;;4.75;;
54921;SDS011;40824;45.116;21.296;2024-02-21T13:28:06;12.82;;;5.95;;
54921;SDS011;40824;45.116;21.296;2024-02-21T13:30:34;10.50;;;5.93;;
54921;SDS011;40824;45.116;21.296;2024-02-21T13:33:00;9.52;;;6.05;;
54921;SDS011;40824;45.116;21.296;2024-02-21T13:35:28;11.20;;;6.10;;
54921;SDS011;40824;45.116;21.296;2024-02-21T13:37:54;9.18;;;5.32;;
54921;SDS011;40824;45.116;21.296;2024-02-21T13:40:20;12.15;;;4.28;;
54921;SDS011;40824;45.116;21.296;2024-02-21T13:42:49;11.90;;;4.45;;
54921;SDS011;40824;45.116;21.296;2024-02-21T13:45:16;9.27;;;4.32;;
54921;SDS011;40824;45.116;21.296;2024-02-21T13:47:42;9.75;;;4.22;;
54921;SDS011;40824;45.116;21.296;2024-02-21T13:50:08;12.25;;;6.70;;
54921;SDS011;40824;45.116;21.296;2024-02-21T13:52:36;8.95;;;4.95;;
54921;SDS011;40824;45.116;21.296;2024-02-21T13:55:02;6.40;;;4.07;;
54921;SDS011;40824;45.116;21.296;2024-02-21T13:57:28;6.68;;;4.38;;
54921;SDS011;40824;45.116;21.296;2024-02-21T13:59:54;8.77;;;4.53;;
54921;SDS011;40824;45.116;21.296;2024-02-21T14:02:20;9.23;;;4.90;;
54921;SDS011;40824;45.116;21.296;2024-02-21T14:04:51;11.20;;;6.13;;
54921;SDS011;40824;45.116;21.296;2024-02-21T14:07:17;10.30;;;5.80;;
54921;SDS011;40824;45.116;21.296;2024-02-21T14:09:44;7.07;;;4.43;;
54921;SDS011;40824;45.116;21.296;2024-02-21T14:12:10;6.10;;;4.10;;
54921;SDS011;40824;45.116;21.296;2024-02-21T14:14:36;7.97;;;3.75;;
54921;SDS011;40824;45.116;21.296;2024-02-21T14:17:03;6.97;;;5.25;;
54921;SDS011;40824;45.116;21.296;2024-02-21T14:19:31;10.82;;;5.70;;
54921;SDS011;40824;45.116;21.296;2024-02-21T14:21:58;7.15;;;4.20;;
54921;SDS011;40824;45.116;21.296;2024-02-21T14:24:24;7.57;;;5.45;;